sensor_id;sensor_type;location;lat;lon;timestamp;P1;durP1;ratioP1;P2;durP2;ratioP2
29538;SDS011;16482;51.046;4.498;2022-11-30T00:01:51;12.40;;;11.05;;
29538;SDS011;16482;51.046;4.498;2022-11-30T00:07:06;10.77;;;9.68;;
29538;SDS011;16482;51.046;4.498;2022-11-30T00:09:31;12.02;;;10.73;;
29538;SDS011;16482;51.046;4.498;2022-11-30T00:15:01;11.32;;;10.13;;
29538;SDS011;16482;51.046;4.498;2022-11-30T00:20:31;11.15;;;9.95;;
29538;SDS011;16482;51.046;4.498;2022-11-30T00:22:58;11.45;;;10.25;;
29538;SDS011;16482;51.046;4.498;2022-11-30T00:25:24;11.32;;;10.13;;
29538;SDS011;16482;51.046;4.498;2022-11-30T00:31:22;11.18;;;10.07;;
29538;SDS011;16482;51.046;4.498;2022-11-30T00:34:05;11.82;;;10.55;;
29538;SDS011;16482;51.046;4.498;2022-11-30T00:36:30;11.00;;;9.90;;
29538;SDS011;16482;51.046;4.498;2022-11-30T00:38:56;11.23;;;10.02;;
29538;SDS011;16482;51.046;4.498;2022-11-30T00:41:22;12.13;;;10.35;;
29538;SDS011;16482;51.046;4.498;2022-11-30T00:43:49;11.27;;;10.07;;
29538;SDS011;16482;51.046;4.498;2022-11-30T00:46:15;11.48;;;10.27;;
29538;SDS011;16482;51.046;4.498;2022-11-30T00:48:47;11.50;;;10.15;;
29538;SDS011;16482;51.046;4.498;2022-11-30T00:51:15;12.02;;;10.80;;
29538;SDS011;16482;51.046;4.498;2022-11-30T00:53:42;12.25;;;10.95;;
29538;SDS011;16482;51.046;4.498;2022-11-30T00:56:15;12.52;;;10.73;;
29538;SDS011;16482;51.046;4.498;2022-11-30T00:58:41;11.93;;;10.63;;
29538;SDS011;16482;51.046;4.498;2022-11-30T01:01:06;11.25;;;10.02;;
29538;SDS011;16482;51.046;4.498;2022-11-30T01:03:33;12.20;;;10.73;;
29538;SDS011;16482;51.046;4.498;2022-11-30T01:06:06;11.60;;;10.32;;
29538;SDS011;16482;51.046;4.498;2022-11-30T01:08:33;11.98;;;10.77;;
29538;SDS011;16482;51.046;4.498;2022-11-30T01:11:12;12.23;;;10.95;;
29538;SDS011;16482;51.046;4.498;2022-11-30T01:13:50;12.32;;;11.02;;
29538;SDS011;16482;51.046;4.498;2022-11-30T01:16:19;12.63;;;10.75;;
29538;SDS011;16482;51.046;4.498;2022-11-30T01:18:50;12.98;;;11.38;;
29538;SDS011;16482;51.046;4.498;2022-11-30T01:21:17;12.25;;;10.85;;
29538;SDS011;16482;51.046;4.498;2022-11-30T01:23:44;12.50;;;11.20;;
29538;SDS011;16482;51.046;4.498;2022-11-30T01:26:17;12.63;;;10.98;;
29538;SDS011;16482;51.046;4.498;2022-11-30T01:28:43;13.02;;;11.45;;
29538;SDS011;16482;51.046;4.498;2022-11-30T01:31:18;12.95;;;11.55;;
29538;SDS011;16482;51.046;4.498;2022-11-30T01:36:48;13.30;;;11.25;;
29538;SDS011;16482;51.046;4.498;2022-11-30T01:39:16;14.02;;;12.25;;
29538;SDS011;16482;51.046;4.498;2022-11-30T01:41:42;13.88;;;12.05;;
29538;SDS011;16482;51.046;4.498;2022-11-30T01:49:15;13.00;;;11.50;;
29538;SDS011;16482;51.046;4.498;2022-11-30T01:52:14;14.90;;;12.65;;
29538;SDS011;16482;51.046;4.498;2022-11-30T01:58:37;14.57;;;12.35;;
29538;SDS011;16482;51.046;4.498;2022-11-30T02:03:54;14.30;;;12.35;;
29538;SDS011;16482;51.046;4.498;2022-11-30T02:11:47;13.80;;;12.15;;
29538;SDS011;16482;51.046;4.498;2022-11-30T02:31:43;14.15;;;12.20;;
29538;SDS011;16482;51.046;4.498;2022-11-30T02:34:16;14.35;;;12.13;;
29538;SDS011;16482;51.046;4.498;2022-11-30T02:36:46;15.82;;;13.35;;
29538;SDS011;16482;51.046;4.498;2022-11-30T02:42:13;13.20;;;11.68;;
29538;SDS011;16482;51.046;4.498;2022-11-30T02:44:39;14.02;;;12.15;;
29538;SDS011;16482;51.046;4.498;2022-11-30T02:50:17;14.23;;;11.82;;
29538;SDS011;16482;51.046;4.498;2022-11-30T02:53:03;13.98;;;11.48;;
29538;SDS011;16482;51.046;4.498;2022-11-30T02:56:06;13.85;;;12.35;;
29538;SDS011;16482;51.046;4.498;2022-11-30T02:58:34;13.90;;;12.07;;
29538;SDS011;16482;51.046;4.498;2022-11-30T03:01:00;14.98;;;12.55;;
29538;SDS011;16482;51.046;4.498;2022-11-30T03:06:18;13.60;;;12.18;;
29538;SDS011;16482;51.046;4.498;2022-11-30T03:08:49;13.95;;;12.45;;
29538;SDS011;16482;51.046;4.498;2022-11-30T03:11:16;14.55;;;12.98;;
29538;SDS011;16482;51.046;4.498;2022-11-30T03:13:45;13.75;;;12.30;;
29538;SDS011;16482;51.046;4.498;2022-11-30T03:16:19;14.13;;;12.63;;
29538;SDS011;16482;51.046;4.498;2022-11-30T03:18:49;14.55;;;12.05;;
29538;SDS011;16482;51.046;4.498;2022-11-30T03:21:17;13.73;;;12.13;;
29538;SDS011;16482;51.046;4.498;2022-11-30T03:23:48;13.60;;;11.60;;
29538;SDS011;16482;51.046;4.498;2022-11-30T03:26:23;12.85;;;11.48;;
29538;SDS011;16482;51.046;4.498;2022-11-30T03:28:51;15.80;;;13.13;;
29538;SDS011;16482;51.046;4.498;2022-11-30T03:31:19;14.57;;;12.68;;
29538;SDS011;16482;51.046;4.498;2022-11-30T03:37:08;14.18;;;12.43;;
29538;SDS011;16482;51.046;4.498;2022-11-30T03:39:34;13.82;;;12.00;;
29538;SDS011;16482;51.046;4.498;2022-11-30T03:42:20;15.23;;;12.07;;
29538;SDS011;16482;51.046;4.498;2022-11-30T03:44:47;13.80;;;11.95;;
29538;SDS011;16482;51.046;4.498;2022-11-30T03:47:13;14.75;;;12.40;;
29538;SDS011;16482;51.046;4.498;2022-11-30T03:52:25;14.18;;;11.93;;
29538;SDS011;16482;51.046;4.498;2022-11-30T03:54:51;14.50;;;12.43;;
29538;SDS011;16482;51.046;4.498;2022-11-30T03:57:18;14.95;;;12.25;;
29538;SDS011;16482;51.046;4.498;2022-11-30T03:59:44;14.13;;;11.95;;
29538;SDS011;16482;51.046;4.498;2022-11-30T04:02:12;14.88;;;13.27;;
29538;SDS011;16482;51.046;4.498;2022-11-30T04:04:40;14.25;;;12.73;;
29538;SDS011;16482;51.046;4.498;2022-11-30T04:07:06;15.43;;;12.68;;
29538;SDS011;16482;51.046;4.498;2022-11-30T04:09:39;14.85;;;12.15;;
29538;SDS011;16482;51.046;4.498;2022-11-30T04:12:08;15.02;;;12.90;;
29538;SDS011;16482;51.046;4.498;2022-11-30T04:14:39;15.07;;;12.85;;
29538;SDS011;16482;51.046;4.498;2022-11-30T04:17:59;14.40;;;12.30;;
29538;SDS011;16482;51.046;4.498;2022-11-30T04:20:25;13.35;;;11.82;;
29538;SDS011;16482;51.046;4.498;2022-11-30T04:22:51;14.88;;;12.57;;
29538;SDS011;16482;51.046;4.498;2022-11-30T04:28:39;13.60;;;12.20;;
29538;SDS011;16482;51.046;4.498;2022-11-30T04:31:05;14.82;;;12.48;;
29538;SDS011;16482;51.046;4.498;2022-11-30T04:33:31;14.38;;;12.38;;
29538;SDS011;16482;51.046;4.498;2022-11-30T04:35:58;14.75;;;12.52;;
29538;SDS011;16482;51.046;4.498;2022-11-30T04:41:21;14.82;;;12.77;;
29538;SDS011;16482;51.046;4.498;2022-11-30T04:43:52;15.43;;;13.15;;
29538;SDS011;16482;51.046;4.498;2022-11-30T04:49:43;14.57;;;12.60;;
29538;SDS011;16482;51.046;4.498;2022-11-30T04:55:33;15.43;;;13.13;;
29538;SDS011;16482;51.046;4.498;2022-11-30T04:58:01;14.50;;;12.65;;
29538;SDS011;16482;51.046;4.498;2022-11-30T05:00:31;14.75;;;12.32;;
29538;SDS011;16482;51.046;4.498;2022-11-30T05:03:00;15.00;;;12.35;;
29538;SDS011;16482;51.046;4.498;2022-11-30T05:08:13;14.93;;;11.95;;
29538;SDS011;16482;51.046;4.498;2022-11-30T05:10:39;14.00;;;12.38;;
29538;SDS011;16482;51.046;4.498;2022-11-30T05:13:08;15.80;;;12.73;;
29538;SDS011;16482;51.046;4.498;2022-11-30T05:15:34;14.35;;;12.25;;
29538;SDS011;16482;51.046;4.498;2022-11-30T05:18:02;13.80;;;11.65;;
29538;SDS011;16482;51.046;4.498;2022-11-30T05:23:50;14.40;;;12.63;;
29538;SDS011;16482;51.046;4.498;2022-11-30T05:26:20;15.20;;;12.70;;
29538;SDS011;16482;51.046;4.498;2022-11-30T05:28:52;14.85;;;12.35;;
29538;SDS011;16482;51.046;4.498;2022-11-30T05:31:20;14.93;;;12.52;;
29538;SDS011;16482;51.046;4.498;2022-11-30T05:33:52;13.43;;;11.70;;
29538;SDS011;16482;51.046;4.498;2022-11-30T05:36:18;15.73;;;12.00;;
29538;SDS011;16482;51.046;4.498;2022-11-30T05:38:52;14.55;;;12.25;;
29538;SDS011;16482;51.046;4.498;2022-11-30T05:41:19;14.70;;;12.32;;
29538;SDS011;16482;51.046;4.498;2022-11-30T05:43:51;14.55;;;12.38;;
29538;SDS011;16482;51.046;4.498;2022-11-30T05:46:20;14.30;;;11.98;;
29538;SDS011;16482;51.046;4.498;2022-11-30T05:48:53;14.05;;;11.80;;
29538;SDS011;16482;51.046;4.498;2022-11-30T05:51:21;14.82;;;12.63;;
29538;SDS011;16482;51.046;4.498;2022-11-30T05:53:48;13.75;;;11.82;;
29538;SDS011;16482;51.046;4.498;2022-11-30T05:56:23;13.90;;;12.25;;
29538;SDS011;16482;51.046;4.498;2022-11-30T05:58:52;14.20;;;12.18;;
29538;SDS011;16482;51.046;4.498;2022-11-30T06:01:22;13.88;;;11.55;;
29538;SDS011;16482;51.046;4.498;2022-11-30T06:03:50;12.73;;;11.43;;
29538;SDS011;16482;51.046;4.498;2022-11-30T06:09:48;15.30;;;12.32;;
29538;SDS011;16482;51.046;4.498;2022-11-30T06:12:14;13.68;;;11.20;;
29538;SDS011;16482;51.046;4.498;2022-11-30T06:14:42;14.13;;;11.95;;
29538;SDS011;16482;51.046;4.498;2022-11-30T06:17:13;14.10;;;11.90;;
29538;SDS011;16482;51.046;4.498;2022-11-30T06:19:39;13.57;;;11.75;;
29538;SDS011;16482;51.046;4.498;2022-11-30T06:22:09;13.02;;;11.13;;
29538;SDS011;16482;51.046;4.498;2022-11-30T06:24:41;12.85;;;11.05;;
29538;SDS011;16482;51.046;4.498;2022-11-30T06:27:06;13.68;;;11.27;;
29538;SDS011;16482;51.046;4.498;2022-11-30T06:29:37;12.35;;;10.63;;
29538;SDS011;16482;51.046;4.498;2022-11-30T06:32:05;12.27;;;10.60;;
29538;SDS011;16482;51.046;4.498;2022-11-30T06:34:32;12.27;;;10.98;;
29538;SDS011;16482;51.046;4.498;2022-11-30T06:39:42;11.77;;;10.27;;
29538;SDS011;16482;51.046;4.498;2022-11-30T06:42:10;13.00;;;11.02;;
29538;SDS011;16482;51.046;4.498;2022-11-30T06:44:44;12.90;;;10.82;;
29538;SDS011;16482;51.046;4.498;2022-11-30T06:47:12;12.73;;;11.05;;
29538;SDS011;16482;51.046;4.498;2022-11-30T06:49:38;13.00;;;11.13;;
29538;SDS011;16482;51.046;4.498;2022-11-30T06:52:14;13.13;;;11.48;;
29538;SDS011;16482;51.046;4.498;2022-11-30T06:54:42;11.98;;;10.20;;
29538;SDS011;16482;51.046;4.498;2022-11-30T06:57:11;12.50;;;10.38;;
29538;SDS011;16482;51.046;4.498;2022-11-30T06:59:41;11.75;;;9.93;;
29538;SDS011;16482;51.046;4.498;2022-11-30T07:02:12;12.38;;;10.70;;
29538;SDS011;16482;51.046;4.498;2022-11-30T07:04:41;12.50;;;11.20;;
29538;SDS011;16482;51.046;4.498;2022-11-30T07:07:11;12.02;;;10.63;;
29538;SDS011;16482;51.046;4.498;2022-11-30T07:09:41;13.52;;;10.30;;
29538;SDS011;16482;51.046;4.498;2022-11-30T07:12:07;12.68;;;10.77;;
29538;SDS011;16482;51.046;4.498;2022-11-30T07:14:39;13.18;;;11.38;;
29538;SDS011;16482;51.046;4.498;2022-11-30T07:17:04;12.60;;;10.95;;
29538;SDS011;16482;51.046;4.498;2022-11-30T07:19:45;12.48;;;10.73;;
29538;SDS011;16482;51.046;4.498;2022-11-30T07:22:13;11.38;;;9.73;;
29538;SDS011;16482;51.046;4.498;2022-11-30T07:24:43;12.10;;;10.38;;
29538;SDS011;16482;51.046;4.498;2022-11-30T07:27:28;12.07;;;10.38;;
29538;SDS011;16482;51.046;4.498;2022-11-30T07:29:54;13.15;;;10.38;;
29538;SDS011;16482;51.046;4.498;2022-11-30T07:32:19;11.52;;;10.07;;
29538;SDS011;16482;51.046;4.498;2022-11-30T07:34:45;11.13;;;9.75;;
29538;SDS011;16482;51.046;4.498;2022-11-30T07:37:13;11.30;;;10.05;;
29538;SDS011;16482;51.046;4.498;2022-11-30T07:39:39;12.63;;;10.80;;
29538;SDS011;16482;51.046;4.498;2022-11-30T07:42:05;12.45;;;10.55;;
29538;SDS011;16482;51.046;4.498;2022-11-30T07:44:33;12.25;;;10.60;;
29538;SDS011;16482;51.046;4.498;2022-11-30T07:46:59;11.95;;;10.65;;
29538;SDS011;16482;51.046;4.498;2022-11-30T07:49:25;12.30;;;9.98;;
29538;SDS011;16482;51.046;4.498;2022-11-30T07:51:50;13.23;;;11.60;;
29538;SDS011;16482;51.046;4.498;2022-11-30T07:54:16;11.48;;;9.75;;
29538;SDS011;16482;51.046;4.498;2022-11-30T07:59:28;12.18;;;10.48;;
29538;SDS011;16482;51.046;4.498;2022-11-30T08:01:54;12.18;;;10.88;;
29538;SDS011;16482;51.046;4.498;2022-11-30T08:04:19;11.48;;;9.98;;
29538;SDS011;16482;51.046;4.498;2022-11-30T08:09:44;12.05;;;10.35;;
29538;SDS011;16482;51.046;4.498;2022-11-30T08:12:13;12.43;;;10.55;;
29538;SDS011;16482;51.046;4.498;2022-11-30T08:14:46;13.07;;;10.43;;
29538;SDS011;16482;51.046;4.498;2022-11-30T08:17:31;12.27;;;10.27;;
29538;SDS011;16482;51.046;4.498;2022-11-30T08:23:19;11.43;;;10.00;;
29538;SDS011;16482;51.046;4.498;2022-11-30T08:28:55;13.68;;;11.63;;
29538;SDS011;16482;51.046;4.498;2022-11-30T08:31:59;12.55;;;11.02;;
29538;SDS011;16482;51.046;4.498;2022-11-30T08:37:10;13.77;;;10.90;;
29538;SDS011;16482;51.046;4.498;2022-11-30T08:39:43;13.65;;;10.82;;
29538;SDS011;16482;51.046;4.498;2022-11-30T08:42:16;14.02;;;10.82;;
29538;SDS011;16482;51.046;4.498;2022-11-30T08:44:42;12.75;;;11.43;;
29538;SDS011;16482;51.046;4.498;2022-11-30T08:47:13;13.63;;;11.50;;
29538;SDS011;16482;51.046;4.498;2022-11-30T08:49:55;12.55;;;10.88;;
29538;SDS011;16482;51.046;4.498;2022-11-30T08:55:32;11.75;;;10.25;;
29538;SDS011;16482;51.046;4.498;2022-11-30T08:58:05;14.55;;;11.13;;
29538;SDS011;16482;51.046;4.498;2022-11-30T09:00:32;12.38;;;10.90;;
29538;SDS011;16482;51.046;4.498;2022-11-30T09:03:03;11.50;;;10.30;;
29538;SDS011;16482;51.046;4.498;2022-11-30T09:11:37;13.95;;;10.85;;
29538;SDS011;16482;51.046;4.498;2022-11-30T09:14:03;12.23;;;10.85;;
29538;SDS011;16482;51.046;4.498;2022-11-30T09:19:19;15.10;;;11.15;;
29538;SDS011;16482;51.046;4.498;2022-11-30T09:21:45;12.52;;;11.23;;
29538;SDS011;16482;51.046;4.498;2022-11-30T09:24:11;12.05;;;10.52;;
29538;SDS011;16482;51.046;4.498;2022-11-30T09:26:37;12.07;;;10.77;;
29538;SDS011;16482;51.046;4.498;2022-11-30T09:29:03;12.98;;;11.02;;
29538;SDS011;16482;51.046;4.498;2022-11-30T09:31:31;12.43;;;11.13;;
29538;SDS011;16482;51.046;4.498;2022-11-30T09:33:57;13.25;;;11.15;;
29538;SDS011;16482;51.046;4.498;2022-11-30T09:36:24;13.27;;;11.18;;
29538;SDS011;16482;51.046;4.498;2022-11-30T09:47:29;14.68;;;12.10;;
29538;SDS011;16482;51.046;4.498;2022-11-30T09:50:39;12.63;;;11.25;;
29538;SDS011;16482;51.046;4.498;2022-11-30T09:56:28;13.57;;;11.65;;
29538;SDS011;16482;51.046;4.498;2022-11-30T09:58:59;15.65;;;11.63;;
29538;SDS011;16482;51.046;4.498;2022-11-30T10:04:23;13.85;;;11.77;;
29538;SDS011;16482;51.046;4.498;2022-11-30T10:10:38;14.75;;;11.88;;
29538;SDS011;16482;51.046;4.498;2022-11-30T10:18:28;16.83;;;13.45;;
29538;SDS011;16482;51.046;4.498;2022-11-30T10:21:29;14.60;;;12.15;;
29538;SDS011;16482;51.046;4.498;2022-11-30T10:24:58;14.95;;;12.60;;
29538;SDS011;16482;51.046;4.498;2022-11-30T10:30:44;15.55;;;12.15;;
29538;SDS011;16482;51.046;4.498;2022-11-30T10:33:15;15.27;;;11.73;;
29538;SDS011;16482;51.046;4.498;2022-11-30T10:35:50;15.25;;;12.52;;
29538;SDS011;16482;51.046;4.498;2022-11-30T10:41:19;14.60;;;12.35;;
29538;SDS011;16482;51.046;4.498;2022-11-30T10:43:57;16.05;;;12.40;;
29538;SDS011;16482;51.046;4.498;2022-11-30T10:46:37;14.73;;;12.73;;
29538;SDS011;16482;51.046;4.498;2022-11-30T10:49:17;15.35;;;13.35;;
29538;SDS011;16482;51.046;4.498;2022-11-30T10:55:17;16.55;;;12.85;;
29538;SDS011;16482;51.046;4.498;2022-11-30T10:57:49;16.08;;;12.98;;
29538;SDS011;16482;51.046;4.498;2022-11-30T11:00:19;16.27;;;13.30;;
29538;SDS011;16482;51.046;4.498;2022-11-30T11:02:48;16.77;;;12.65;;
29538;SDS011;16482;51.046;4.498;2022-11-30T11:10:34;16.20;;;13.30;;
29538;SDS011;16482;51.046;4.498;2022-11-30T11:13:45;18.48;;;13.50;;
29538;SDS011;16482;51.046;4.498;2022-11-30T11:16:09;16.95;;;13.57;;
29538;SDS011;16482;51.046;4.498;2022-11-30T11:18:38;16.88;;;14.40;;
29538;SDS011;16482;51.046;4.498;2022-11-30T11:21:23;15.75;;;13.35;;
29538;SDS011;16482;51.046;4.498;2022-11-30T11:23:54;19.20;;;15.40;;
29538;SDS011;16482;51.046;4.498;2022-11-30T11:26:25;16.65;;;13.98;;
29538;SDS011;16482;51.046;4.498;2022-11-30T11:31:55;18.05;;;14.65;;
29538;SDS011;16482;51.046;4.498;2022-11-30T11:34:39;19.35;;;15.10;;
29538;SDS011;16482;51.046;4.498;2022-11-30T11:37:06;18.67;;;14.70;;
29538;SDS011;16482;51.046;4.498;2022-11-30T11:39:38;17.52;;;14.55;;
29538;SDS011;16482;51.046;4.498;2022-11-30T11:42:08;19.27;;;15.57;;
29538;SDS011;16482;51.046;4.498;2022-11-30T11:44:58;17.85;;;14.68;;
29538;SDS011;16482;51.046;4.498;2022-11-30T11:47:37;19.15;;;15.18;;
29538;SDS011;16482;51.046;4.498;2022-11-30T11:50:21;18.77;;;15.27;;
29538;SDS011;16482;51.046;4.498;2022-11-30T11:53:05;19.60;;;15.55;;
29538;SDS011;16482;51.046;4.498;2022-11-30T11:55:59;19.55;;;15.57;;
29538;SDS011;16482;51.046;4.498;2022-11-30T12:03:57;20.90;;;15.93;;
29538;SDS011;16482;51.046;4.498;2022-11-30T12:06:37;20.75;;;15.75;;
29538;SDS011;16482;51.046;4.498;2022-11-30T12:09:10;19.30;;;15.65;;
29538;SDS011;16482;51.046;4.498;2022-11-30T12:11:46;21.60;;;16.52;;
29538;SDS011;16482;51.046;4.498;2022-11-30T12:14:13;19.95;;;16.60;;
29538;SDS011;16482;51.046;4.498;2022-11-30T12:19:58;22.40;;;17.77;;
29538;SDS011;16482;51.046;4.498;2022-11-30T12:22:50;19.45;;;15.85;;
29538;SDS011;16482;51.046;4.498;2022-11-30T12:25:32;20.00;;;16.45;;
29538;SDS011;16482;51.046;4.498;2022-11-30T12:28:26;21.25;;;16.40;;
29538;SDS011;16482;51.046;4.498;2022-11-30T12:31:12;23.38;;;17.95;;
29538;SDS011;16482;51.046;4.498;2022-11-30T12:37:50;22.20;;;17.38;;
29538;SDS011;16482;51.046;4.498;2022-11-30T12:50:49;25.27;;;18.33;;
29538;SDS011;16482;51.046;4.498;2022-11-30T12:53:23;21.73;;;17.00;;
29538;SDS011;16482;51.046;4.498;2022-11-30T12:58:46;24.73;;;18.77;;
29538;SDS011;16482;51.046;4.498;2022-11-30T13:04:43;23.33;;;18.02;;
29538;SDS011;16482;51.046;4.498;2022-11-30T13:07:23;24.52;;;18.20;;
29538;SDS011;16482;51.046;4.498;2022-11-30T13:09:59;23.63;;;18.08;;
29538;SDS011;16482;51.046;4.498;2022-11-30T13:12:33;24.65;;;18.95;;
29538;SDS011;16482;51.046;4.498;2022-11-30T13:15:04;23.95;;;17.92;;
29538;SDS011;16482;51.046;4.498;2022-11-30T13:17:37;22.52;;;18.08;;
29538;SDS011;16482;51.046;4.498;2022-11-30T13:20:49;23.48;;;18.85;;
29538;SDS011;16482;51.046;4.498;2022-11-30T13:31:00;23.88;;;18.27;;
29538;SDS011;16482;51.046;4.498;2022-11-30T13:36:25;23.88;;;17.83;;
29538;SDS011;16482;51.046;4.498;2022-11-30T13:41:45;24.52;;;19.48;;
29538;SDS011;16482;51.046;4.498;2022-11-30T13:44:46;24.98;;;19.10;;
29538;SDS011;16482;51.046;4.498;2022-11-30T13:49:59;24.75;;;18.50;;
29538;SDS011;16482;51.046;4.498;2022-11-30T13:58:14;25.35;;;19.15;;
29538;SDS011;16482;51.046;4.498;2022-11-30T14:03:29;25.67;;;19.38;;
29538;SDS011;16482;51.046;4.498;2022-11-30T14:09:15;24.40;;;18.58;;
29538;SDS011;16482;51.046;4.498;2022-11-30T14:14:52;26.92;;;20.35;;
29538;SDS011;16482;51.046;4.498;2022-11-30T14:17:19;28.05;;;19.40;;
29538;SDS011;16482;51.046;4.498;2022-11-30T14:19:51;27.27;;;20.20;;
29538;SDS011;16482;51.046;4.498;2022-11-30T14:22:33;25.65;;;19.63;;
29538;SDS011;16482;51.046;4.498;2022-11-30T14:24:59;25.08;;;19.13;;
29538;SDS011;16482;51.046;4.498;2022-11-30T14:27:27;25.60;;;19.38;;
29538;SDS011;16482;51.046;4.498;2022-11-30T14:29:56;26.58;;;19.52;;
29538;SDS011;16482;51.046;4.498;2022-11-30T14:32:32;26.48;;;19.48;;
29538;SDS011;16482;51.046;4.498;2022-11-30T14:35:11;26.42;;;19.80;;
29538;SDS011;16482;51.046;4.498;2022-11-30T14:37:45;25.58;;;19.15;;
29538;SDS011;16482;51.046;4.498;2022-11-30T14:40:21;26.77;;;20.20;;
29538;SDS011;16482;51.046;4.498;2022-11-30T14:42:50;27.10;;;20.52;;
29538;SDS011;16482;51.046;4.498;2022-11-30T14:45:18;26.58;;;20.20;;
29538;SDS011;16482;51.046;4.498;2022-11-30T14:47:52;28.50;;;20.48;;
29538;SDS011;16482;51.046;4.498;2022-11-30T14:50:45;27.60;;;19.80;;
29538;SDS011;16482;51.046;4.498;2022-11-30T14:58:52;26.02;;;19.60;;
29538;SDS011;16482;51.046;4.498;2022-11-30T15:01:27;31.33;;;21.20;;
29538;SDS011;16482;51.046;4.498;2022-11-30T15:04:04;29.30;;;21.45;;
29538;SDS011;16482;51.046;4.498;2022-11-30T15:06:34;29.48;;;21.42;;
29538;SDS011;16482;51.046;4.498;2022-11-30T15:09:03;28.58;;;20.70;;
29538;SDS011;16482;51.046;4.498;2022-11-30T15:11:39;30.52;;;21.52;;
29538;SDS011;16482;51.046;4.498;2022-11-30T15:14:10;30.75;;;21.88;;
29538;SDS011;16482;51.046;4.498;2022-11-30T15:16:37;27.38;;;20.40;;
29538;SDS011;16482;51.046;4.498;2022-11-30T15:19:19;29.45;;;20.60;;
29538;SDS011;16482;51.046;4.498;2022-11-30T15:21:46;27.95;;;19.98;;
29538;SDS011;16482;51.046;4.498;2022-11-30T15:24:12;32.58;;;22.45;;
29538;SDS011;16482;51.046;4.498;2022-11-30T15:26:47;30.90;;;22.33;;
29538;SDS011;16482;51.046;4.498;2022-11-30T15:29:30;30.63;;;21.77;;
29538;SDS011;16482;51.046;4.498;2022-11-30T15:32:00;32.25;;;22.20;;
29538;SDS011;16482;51.046;4.498;2022-11-30T15:34:32;30.95;;;21.67;;
29538;SDS011;16482;51.046;4.498;2022-11-30T15:37:11;31.60;;;21.65;;
29538;SDS011;16482;51.046;4.498;2022-11-30T15:39:38;31.00;;;22.05;;
29538;SDS011;16482;51.046;4.498;2022-11-30T15:42:17;31.23;;;21.13;;
29538;SDS011;16482;51.046;4.498;2022-11-30T15:44:46;31.50;;;21.02;;
29538;SDS011;16482;51.046;4.498;2022-11-30T15:47:23;32.08;;;22.02;;
29538;SDS011;16482;51.046;4.498;2022-11-30T15:49:52;32.03;;;21.80;;
29538;SDS011;16482;51.046;4.498;2022-11-30T15:52:19;33.63;;;22.65;;
29538;SDS011;16482;51.046;4.498;2022-11-30T15:54:50;33.78;;;23.60;;
29538;SDS011;16482;51.046;4.498;2022-11-30T15:57:19;30.92;;;22.05;;
29538;SDS011;16482;51.046;4.498;2022-11-30T16:02:32;34.72;;;22.73;;
29538;SDS011;16482;51.046;4.498;2022-11-30T16:07:35;34.83;;;25.05;;
29538;SDS011;16482;51.046;4.498;2022-11-30T16:10:09;33.70;;;23.35;;
29538;SDS011;16482;51.046;4.498;2022-11-30T16:12:48;34.90;;;23.70;;
29538;SDS011;16482;51.046;4.498;2022-11-30T16:15:20;34.40;;;24.08;;
29538;SDS011;16482;51.046;4.498;2022-11-30T16:17:52;38.93;;;24.73;;
29538;SDS011;16482;51.046;4.498;2022-11-30T16:20:20;34.90;;;23.73;;
29538;SDS011;16482;51.046;4.498;2022-11-30T16:22:47;39.03;;;25.05;;
29538;SDS011;16482;51.046;4.498;2022-11-30T16:25:14;37.28;;;25.50;;
29538;SDS011;16482;51.046;4.498;2022-11-30T16:27:42;39.05;;;26.30;;
29538;SDS011;16482;51.046;4.498;2022-11-30T16:30:11;38.42;;;25.40;;
29538;SDS011;16482;51.046;4.498;2022-11-30T16:32:38;38.30;;;26.10;;
29538;SDS011;16482;51.046;4.498;2022-11-30T16:35:12;39.65;;;26.02;;
29538;SDS011;16482;51.046;4.498;2022-11-30T16:38:01;35.78;;;24.58;;
29538;SDS011;16482;51.046;4.498;2022-11-30T16:40:27;40.90;;;27.25;;
29538;SDS011;16482;51.046;4.498;2022-11-30T16:42:54;40.60;;;26.85;;
29538;SDS011;16482;51.046;4.498;2022-11-30T16:45:21;38.45;;;26.50;;
29538;SDS011;16482;51.046;4.498;2022-11-30T16:47:48;39.03;;;26.05;;
29538;SDS011;16482;51.046;4.498;2022-11-30T16:50:16;39.28;;;26.73;;
29538;SDS011;16482;51.046;4.498;2022-11-30T16:52:43;39.72;;;26.60;;
29538;SDS011;16482;51.046;4.498;2022-11-30T16:55:17;37.72;;;25.25;;
29538;SDS011;16482;51.046;4.498;2022-11-30T16:57:45;42.25;;;28.25;;
29538;SDS011;16482;51.046;4.498;2022-11-30T17:00:12;38.75;;;26.85;;
29538;SDS011;16482;51.046;4.498;2022-11-30T17:02:59;41.58;;;27.75;;
29538;SDS011;16482;51.046;4.498;2022-11-30T17:05:32;40.80;;;26.92;;
29538;SDS011;16482;51.046;4.498;2022-11-30T17:08:01;40.33;;;27.08;;
29538;SDS011;16482;51.046;4.498;2022-11-30T17:10:28;39.55;;;27.08;;
29538;SDS011;16482;51.046;4.498;2022-11-30T17:12:57;38.63;;;26.60;;
29538;SDS011;16482;51.046;4.498;2022-11-30T17:15:23;39.80;;;26.98;;
29538;SDS011;16482;51.046;4.498;2022-11-30T17:17:49;39.72;;;26.67;;
29538;SDS011;16482;51.046;4.498;2022-11-30T17:20:16;39.80;;;27.48;;
29538;SDS011;16482;51.046;4.498;2022-11-30T17:22:43;37.10;;;25.58;;
29538;SDS011;16482;51.046;4.498;2022-11-30T17:25:14;40.08;;;27.98;;
29538;SDS011;16482;51.046;4.498;2022-11-30T17:27:42;38.70;;;27.15;;
29538;SDS011;16482;51.046;4.498;2022-11-30T17:30:08;39.10;;;27.73;;
29538;SDS011;16482;51.046;4.498;2022-11-30T17:32:35;41.17;;;28.23;;
29538;SDS011;16482;51.046;4.498;2022-11-30T17:35:01;42.80;;;28.65;;
29538;SDS011;16482;51.046;4.498;2022-11-30T17:37:27;44.55;;;28.90;;
29538;SDS011;16482;51.046;4.498;2022-11-30T17:39:53;42.28;;;28.10;;
29538;SDS011;16482;51.046;4.498;2022-11-30T17:42:20;39.17;;;27.00;;
29538;SDS011;16482;51.046;4.498;2022-11-30T17:44:46;40.42;;;28.35;;
29538;SDS011;16482;51.046;4.498;2022-11-30T17:47:13;44.33;;;29.40;;
29538;SDS011;16482;51.046;4.498;2022-11-30T17:49:41;39.88;;;28.70;;
29538;SDS011;16482;51.046;4.498;2022-11-30T17:52:07;40.88;;;28.48;;
29538;SDS011;16482;51.046;4.498;2022-11-30T17:54:33;39.25;;;28.40;;
29538;SDS011;16482;51.046;4.498;2022-11-30T17:56:59;41.63;;;28.15;;
29538;SDS011;16482;51.046;4.498;2022-11-30T17:59:25;38.85;;;27.25;;
29538;SDS011;16482;51.046;4.498;2022-11-30T18:01:51;42.72;;;29.88;;
29538;SDS011;16482;51.046;4.498;2022-11-30T18:04:17;42.33;;;30.20;;
29538;SDS011;16482;51.046;4.498;2022-11-30T18:06:43;45.22;;;30.45;;
29538;SDS011;16482;51.046;4.498;2022-11-30T18:09:09;45.25;;;30.13;;
29538;SDS011;16482;51.046;4.498;2022-11-30T18:11:36;42.78;;;29.42;;
29538;SDS011;16482;51.046;4.498;2022-11-30T18:14:02;45.92;;;30.48;;
29538;SDS011;16482;51.046;4.498;2022-11-30T18:16:29;42.65;;;28.95;;
29538;SDS011;16482;51.046;4.498;2022-11-30T18:18:57;43.85;;;29.02;;
29538;SDS011;16482;51.046;4.498;2022-11-30T18:21:27;42.50;;;29.20;;
29538;SDS011;16482;51.046;4.498;2022-11-30T18:23:54;41.13;;;28.98;;
29538;SDS011;16482;51.046;4.498;2022-11-30T18:26:24;44.17;;;29.23;;
29538;SDS011;16482;51.046;4.498;2022-11-30T18:28:56;42.05;;;28.60;;
29538;SDS011;16482;51.046;4.498;2022-11-30T18:33:53;42.97;;;30.13;;
29538;SDS011;16482;51.046;4.498;2022-11-30T18:36:20;42.55;;;28.02;;
29538;SDS011;16482;51.046;4.498;2022-11-30T18:38:46;43.75;;;30.02;;